sensor_id;sensor_type;location;lat;lon;timestamp;pressure;altitude;pressure_sealevel;temperature
77331;BMP280;66405;48.328;7.820;2023-05-14T00:00:15;99889.59;;;13.64
77331;BMP280;66405;48.328;7.820;2023-05-14T00:03:15;99886.16;;;13.63
77331;BMP280;66405;48.328;7.820;2023-05-14T00:06:16;99881.94;;;13.62
77331;BMP280;66405;48.328;7.820;2023-05-14T00:09:16;99884.84;;;13.58
77331;BMP280;66405;48.328;7.820;2023-05-14T00:12:17;99892.69;;;13.56
77331;BMP280;66405;48.328;7.820;2023-05-14T00:15:17;99885.03;;;13.55
77331;BMP280;66405;48.328;7.820;2023-05-14T00:18:18;99889.97;;;13.56
77331;BMP280;66405;48.328;7.820;2023-05-14T00:21:18;99887.53;;;13.58
77331;BMP280;66405;48.328;7.820;2023-05-14T00:24:18;99883.16;;;13.61
77331;BMP280;66405;48.328;7.820;2023-05-14T00:27:19;99882.22;;;13.64
77331;BMP280;66405;48.328;7.820;2023-05-14T00:30:19;99876.63;;;13.68
77331;BMP280;66405;48.328;7.820;2023-05-14T00:33:20;99869.97;;;13.69
77331;BMP280;66405;48.328;7.820;2023-05-14T00:36:20;99869.47;;;13.70
77331;BMP280;66405;48.328;7.820;2023-05-14T00:39:21;99862.09;;;13.71
77331;BMP280;66405;48.328;7.820;2023-05-14T00:42:21;99863.31;;;13.70
77331;BMP280;66405;48.328;7.820;2023-05-14T00:45:22;99865.47;;;13.66
77331;BMP280;66405;48.328;7.820;2023-05-14T00:48:22;99866.88;;;13.61
77331;BMP280;66405;48.328;7.820;2023-05-14T00:51:24;99853.97;;;13.56
77331;BMP280;66405;48.328;7.820;2023-05-14T00:54:28;99857.28;;;13.51
77331;BMP280;66405;48.328;7.820;2023-05-14T00:57:28;99852.53;;;13.46
77331;BMP280;66405;48.328;7.820;2023-05-14T01:00:29;99856.81;;;13.37
77331;BMP280;66405;48.328;7.820;2023-05-14T01:03:30;99858.41;;;13.29
77331;BMP280;66405;48.328;7.820;2023-05-14T01:06:57;99859.19;;;13.20
77331;BMP280;66405;48.328;7.820;2023-05-14T01:13:27;99857.38;;;13.02
77331;BMP280;66405;48.328;7.820;2023-05-14T01:16:33;99855.78;;;12.96
77331;BMP280;66405;48.328;7.820;2023-05-14T01:19:43;99853.66;;;12.91
77331;BMP280;66405;48.328;7.820;2023-05-14T01:22:44;99854.00;;;12.83
77331;BMP280;66405;48.328;7.820;2023-05-14T01:25:44;99849.06;;;12.82
77331;BMP280;66405;48.328;7.820;2023-05-14T01:28:47;99850.28;;;12.81
77331;BMP280;66405;48.328;7.820;2023-05-14T01:31:50;99857.22;;;12.82
77331;BMP280;66405;48.328;7.820;2023-05-14T01:34:54;99856.44;;;12.81
77331;BMP280;66405;48.328;7.820;2023-05-14T01:37:59;99858.84;;;12.79
77331;BMP280;66405;48.328;7.820;2023-05-14T01:41:01;99860.81;;;12.79
77331;BMP280;66405;48.328;7.820;2023-05-14T01:44:02;99854.63;;;12.78
77331;BMP280;66405;48.328;7.820;2023-05-14T01:47:03;99853.16;;;12.77
77331;BMP280;66405;48.328;7.820;2023-05-14T01:50:04;99851.91;;;12.78
77331;BMP280;66405;48.328;7.820;2023-05-14T01:53:07;99852.69;;;12.79
77331;BMP280;66405;48.328;7.820;2023-05-14T01:56:08;99859.91;;;12.82
77331;BMP280;66405;48.328;7.820;2023-05-14T01:59:08;99850.81;;;12.85
77331;BMP280;66405;48.328;7.820;2023-05-14T02:02:09;99850.19;;;12.90
77331;BMP280;66405;48.328;7.820;2023-05-14T02:05:11;99847.34;;;12.94
77331;BMP280;66405;48.328;7.820;2023-05-14T02:08:11;99852.88;;;12.99
77331;BMP280;66405;48.328;7.820;2023-05-14T02:11:12;99844.53;;;13.03
77331;BMP280;66405;48.328;7.820;2023-05-14T02:14:12;99846.63;;;13.08
77331;BMP280;66405;48.328;7.820;2023-05-14T02:17:14;99847.19;;;13.12
77331;BMP280;66405;48.328;7.820;2023-05-14T02:20:17;99853.16;;;13.16
77331;BMP280;66405;48.328;7.820;2023-05-14T02:23:18;99854.06;;;13.22
77331;BMP280;66405;48.328;7.820;2023-05-14T02:26:18;99850.69;;;13.28
77331;BMP280;66405;48.328;7.820;2023-05-14T02:29:19;99855.03;;;13.34
77331;BMP280;66405;48.328;7.820;2023-05-14T02:32:19;99847.47;;;13.38
77331;BMP280;66405;48.328;7.820;2023-05-14T02:35:20;99841.38;;;13.44
77331;BMP280;66405;48.328;7.820;2023-05-14T02:38:21;99840.00;;;13.48
77331;BMP280;66405;48.328;7.820;2023-05-14T02:41:22;99850.34;;;13.50
77331;BMP280;66405;48.328;7.820;2023-05-14T02:44:22;99839.03;;;13.51
77331;BMP280;66405;48.328;7.820;2023-05-14T02:47:23;99844.00;;;13.53
77331;BMP280;66405;48.328;7.820;2023-05-14T02:50:23;99848.22;;;13.54
77331;BMP280;66405;48.328;7.820;2023-05-14T02:53:24;99847.75;;;13.55
77331;BMP280;66405;48.328;7.820;2023-05-14T02:56:24;99846.09;;;13.58
77331;BMP280;66405;48.328;7.820;2023-05-14T02:59:26;99851.03;;;13.60
77331;BMP280;66405;48.328;7.820;2023-05-14T03:02:26;99840.19;;;13.60
77331;BMP280;66405;48.328;7.820;2023-05-14T03:05:27;99843.09;;;13.56
77331;BMP280;66405;48.328;7.820;2023-05-14T03:08:28;99843.53;;;13.54
77331;BMP280;66405;48.328;7.820;2023-05-14T03:11:28;99846.25;;;13.54
77331;BMP280;66405;48.328;7.820;2023-05-14T03:14:28;99842.06;;;13.53
77331;BMP280;66405;48.328;7.820;2023-05-14T03:17:29;99839.78;;;13.52
77331;BMP280;66405;48.328;7.820;2023-05-14T03:20:30;99835.41;;;13.54
77331;BMP280;66405;48.328;7.820;2023-05-14T03:23:30;99832.69;;;13.54
77331;BMP280;66405;48.328;7.820;2023-05-14T03:26:34;99830.72;;;13.55
77331;BMP280;66405;48.328;7.820;2023-05-14T03:29:34;99828.47;;;13.53
77331;BMP280;66405;48.328;7.820;2023-05-14T03:32:35;99827.72;;;13.53
77331;BMP280;66405;48.328;7.820;2023-05-14T03:35:36;99829.97;;;13.54
77331;BMP280;66405;48.328;7.820;2023-05-14T03:38:36;99839.78;;;13.52
77331;BMP280;66405;48.328;7.820;2023-05-14T03:41:37;99832.41;;;13.52
77331;BMP280;66405;48.328;7.820;2023-05-14T03:44:38;99833.16;;;13.53
77331;BMP280;66405;48.328;7.820;2023-05-14T03:47:39;99838.56;;;13.53
77331;BMP280;66405;48.328;7.820;2023-05-14T03:50:40;99836.91;;;13.55
77331;BMP280;66405;48.328;7.820;2023-05-14T03:53:41;99840.81;;;13.54
77331;BMP280;66405;48.328;7.820;2023-05-14T03:56:41;99840.81;;;13.54
77331;BMP280;66405;48.328;7.820;2023-05-14T03:59:42;99840.56;;;13.52
77331;BMP280;66405;48.328;7.820;2023-05-14T04:02:42;99840.75;;;13.49
77331;BMP280;66405;48.328;7.820;2023-05-14T04:05:43;99845.88;;;13.47
77331;BMP280;66405;48.328;7.820;2023-05-14T04:08:43;99843.91;;;13.47
77331;BMP280;66405;48.328;7.820;2023-05-14T04:11:44;99842.69;;;13.48
77331;BMP280;66405;48.328;7.820;2023-05-14T04:14:45;99845.69;;;13.50
77331;BMP280;66405;48.328;7.820;2023-05-14T04:17:45;99843.47;;;13.49
77331;BMP280;66405;48.328;7.820;2023-05-14T04:20:46;99841.97;;;13.48
77331;BMP280;66405;48.328;7.820;2023-05-14T04:23:47;99841.19;;;13.47
77331;BMP280;66405;48.328;7.820;2023-05-14T04:26:47;99843.16;;;13.47
77331;BMP280;66405;48.328;7.820;2023-05-14T04:29:48;99843.47;;;13.49
77331;BMP280;66405;48.328;7.820;2023-05-14T04:32:49;99839.50;;;13.50
77331;BMP280;66405;48.328;7.820;2023-05-14T04:35:49;99844.47;;;13.51
77331;BMP280;66405;48.328;7.820;2023-05-14T04:38:51;99840.09;;;13.54
77331;BMP280;66405;48.328;7.820;2023-05-14T04:41:51;99843.53;;;13.54
77331;BMP280;66405;48.328;7.820;2023-05-14T04:44:52;99850.22;;;13.53
77331;BMP280;66405;48.328;7.820;2023-05-14T04:47:52;99846.25;;;13.54
77331;BMP280;66405;48.328;7.820;2023-05-14T04:50:53;99843.09;;;13.56
77331;BMP280;66405;48.328;7.820;2023-05-14T04:53:53;99833.72;;;13.57
77331;BMP280;66405;48.328;7.820;2023-05-14T04:56:54;99847.38;;;13.63
77331;BMP280;66405;48.328;7.820;2023-05-14T04:59:55;99839.38;;;13.68
77331;BMP280;66405;48.328;7.820;2023-05-14T05:02:55;99847.59;;;13.74
77331;BMP280;66405;48.328;7.820;2023-05-14T05:05:56;99845.72;;;13.80
77331;BMP280;66405;48.328;7.820;2023-05-14T05:08:56;99848.97;;;13.84
77331;BMP280;66405;48.328;7.820;2023-05-14T05:11:57;99844.31;;;13.85
77331;BMP280;66405;48.328;7.820;2023-05-14T05:14:57;99852.75;;;13.87
77331;BMP280;66405;48.328;7.820;2023-05-14T05:17:58;99847.56;;;13.89
77331;BMP280;66405;48.328;7.820;2023-05-14T05:20:58;99845.06;;;13.85
77331;BMP280;66405;48.328;7.820;2023-05-14T05:23:59;99848.63;;;13.91
77331;BMP280;66405;48.328;7.820;2023-05-14T05:26:59;99844.75;;;13.98
77331;BMP280;66405;48.328;7.820;2023-05-14T05:30:03;99851.34;;;14.06
77331;BMP280;66405;48.328;7.820;2023-05-14T05:33:06;99857.69;;;14.18
77331;BMP280;66405;48.328;7.820;2023-05-14T05:36:07;99854.66;;;14.31
77331;BMP280;66405;48.328;7.820;2023-05-14T05:39:10;99852.31;;;14.39
77331;BMP280;66405;48.328;7.820;2023-05-14T05:42:10;99849.75;;;14.50
77331;BMP280;66405;48.328;7.820;2023-05-14T05:45:11;99854.13;;;14.63
77331;BMP280;66405;48.328;7.820;2023-05-14T05:48:11;99859.69;;;14.74
77331;BMP280;66405;48.328;7.820;2023-05-14T05:51:12;99859.28;;;14.81
77331;BMP280;66405;48.328;7.820;2023-05-14T05:54:13;99859.38;;;14.87
77331;BMP280;66405;48.328;7.820;2023-05-14T05:57:13;99855.00;;;14.95
77331;BMP280;66405;48.328;7.820;2023-05-14T06:00:14;99851.41;;;15.04
77331;BMP280;66405;48.328;7.820;2023-05-14T06:03:14;99854.03;;;15.19
77331;BMP280;66405;48.328;7.820;2023-05-14T06:06:15;99853.19;;;15.33
77331;BMP280;66405;48.328;7.820;2023-05-14T06:09:15;99852.41;;;15.53
77331;BMP280;66405;48.328;7.820;2023-05-14T06:12:16;99852.34;;;15.74
77331;BMP280;66405;48.328;7.820;2023-05-14T06:15:16;99851.25;;;15.92
77331;BMP280;66405;48.328;7.820;2023-05-14T06:18:18;99855.50;;;15.98
77331;BMP280;66405;48.328;7.820;2023-05-14T06:21:21;99858.78;;;16.03
77331;BMP280;66405;48.328;7.820;2023-05-14T06:24:21;99853.88;;;16.12
77331;BMP280;66405;48.328;7.820;2023-05-14T06:27:24;99852.91;;;16.15
77331;BMP280;66405;48.328;7.820;2023-05-14T06:30:24;99853.41;;;16.20
77331;BMP280;66405;48.328;7.820;2023-05-14T06:33:27;99863.84;;;16.21
77331;BMP280;66405;48.328;7.820;2023-05-14T06:36:30;99859.44;;;16.29
77331;BMP280;66405;48.328;7.820;2023-05-14T06:39:31;99859.50;;;16.41
77331;BMP280;66405;48.328;7.820;2023-05-14T06:42:35;99857.34;;;16.56
77331;BMP280;66405;48.328;7.820;2023-05-14T06:45:38;99855.41;;;16.68
77331;BMP280;66405;48.328;7.820;2023-05-14T06:48:38;99852.22;;;16.81
77331;BMP280;66405;48.328;7.820;2023-05-14T06:51:39;99858.50;;;16.98
77331;BMP280;66405;48.328;7.820;2023-05-14T06:54:41;99856.56;;;17.10
77331;BMP280;66405;48.328;7.820;2023-05-14T06:57:42;99857.56;;;17.18
77331;BMP280;66405;48.328;7.820;2023-05-14T07:00:42;99853.34;;;17.29
77331;BMP280;66405;48.328;7.820;2023-05-14T07:03:46;99854.09;;;17.35
77331;BMP280;66405;48.328;7.820;2023-05-14T07:06:48;99850.66;;;17.40
77331;BMP280;66405;48.328;7.820;2023-05-14T07:09:51;99853.38;;;17.46
77331;BMP280;66405;48.328;7.820;2023-05-14T07:12:51;99849.91;;;17.56
77331;BMP280;66405;48.328;7.820;2023-05-14T07:15:52;99846.91;;;17.77
77331;BMP280;66405;48.328;7.820;2023-05-14T07:18:54;99842.66;;;17.99
77331;BMP280;66405;48.328;7.820;2023-05-14T07:21:57;99845.84;;;18.20
77331;BMP280;66405;48.328;7.820;2023-05-14T07:24:57;99846.97;;;18.53
77331;BMP280;66405;48.328;7.820;2023-05-14T07:27:57;99850.00;;;18.96
77331;BMP280;66405;48.328;7.820;2023-05-14T07:31:00;99845.00;;;19.31
77331;BMP280;66405;48.328;7.820;2023-05-14T07:34:00;99839.75;;;19.63
77331;BMP280;66405;48.328;7.820;2023-05-14T07:37:01;99834.94;;;20.00
77331;BMP280;66405;48.328;7.820;2023-05-14T07:40:01;99831.19;;;20.22
77331;BMP280;66405;48.328;7.820;2023-05-14T07:43:02;99839.75;;;20.37
77331;BMP280;66405;48.328;7.820;2023-05-14T07:46:02;99828.31;;;20.33
77331;BMP280;66405;48.328;7.820;2023-05-14T07:49:03;99825.75;;;20.16
77331;BMP280;66405;48.328;7.820;2023-05-14T07:52:06;99822.22;;;20.21
77331;BMP280;66405;48.328;7.820;2023-05-14T07:55:07;99824.47;;;20.42
77331;BMP280;66405;48.328;7.820;2023-05-14T07:58:08;99816.06;;;20.34
77331;BMP280;66405;48.328;7.820;2023-05-14T08:01:08;99826.47;;;20.41
77331;BMP280;66405;48.328;7.820;2023-05-14T08:04:09;99826.47;;;20.60
77331;BMP280;66405;48.328;7.820;2023-05-14T08:07:14;99831.22;;;20.79
77331;BMP280;66405;48.328;7.820;2023-05-14T08:10:14;99830.13;;;21.01
77331;BMP280;66405;48.328;7.820;2023-05-14T08:13:15;99822.91;;;21.30
77331;BMP280;66405;48.328;7.820;2023-05-14T08:16:16;99812.06;;;21.65
77331;BMP280;66405;48.328;7.820;2023-05-14T08:19:16;99827.72;;;21.97
77331;BMP280;66405;48.328;7.820;2023-05-14T08:22:19;99827.75;;;22.18
77331;BMP280;66405;48.328;7.820;2023-05-14T08:25:19;99818.19;;;22.45
77331;BMP280;66405;48.328;7.820;2023-05-14T08:28:20;99812.97;;;22.76
77331;BMP280;66405;48.328;7.820;2023-05-14T08:31:20;99809.06;;;22.93
77331;BMP280;66405;48.328;7.820;2023-05-14T08:34:20;99807.81;;;23.15
77331;BMP280;66405;48.328;7.820;2023-05-14T08:37:21;99809.78;;;23.14
77331;BMP280;66405;48.328;7.820;2023-05-14T08:40:22;99804.06;;;23.12
77331;BMP280;66405;48.328;7.820;2023-05-14T08:43:25;99802.56;;;23.04
77331;BMP280;66405;48.328;7.820;2023-05-14T08:46:27;99809.41;;;23.10
77331;BMP280;66405;48.328;7.820;2023-05-14T08:49:41;99799.88;;;23.11
77331;BMP280;66405;48.328;7.820;2023-05-14T08:52:42;99800.91;;;23.08
77331;BMP280;66405;48.328;7.820;2023-05-14T08:55:44;99795.00;;;22.96
77331;BMP280;66405;48.328;7.820;2023-05-14T08:58:46;99790.47;;;23.07
77331;BMP280;66405;48.328;7.820;2023-05-14T09:01:47;99790.16;;;23.18
77331;BMP280;66405;48.328;7.820;2023-05-14T09:04:57;99784.94;;;23.35
77331;BMP280;66405;48.328;7.820;2023-05-14T09:07:58;99777.31;;;23.49
77331;BMP280;66405;48.328;7.820;2023-05-14T09:11:01;99775.00;;;23.61
77331;BMP280;66405;48.328;7.820;2023-05-14T09:14:02;99773.38;;;23.81
77331;BMP280;66405;48.328;7.820;2023-05-14T09:17:03;99771.13;;;24.16
77331;BMP280;66405;48.328;7.820;2023-05-14T09:20:05;99766.72;;;24.36
77331;BMP280;66405;48.328;7.820;2023-05-14T09:23:07;99767.09;;;24.48
77331;BMP280;66405;48.328;7.820;2023-05-14T09:26:08;99764.91;;;24.62
77331;BMP280;66405;48.328;7.820;2023-05-14T09:29:08;99764.53;;;24.73
77331;BMP280;66405;48.328;7.820;2023-05-14T09:32:08;99760.84;;;25.01
77331;BMP280;66405;48.328;7.820;2023-05-14T09:38:13;99756.56;;;25.16
77331;BMP280;66405;48.328;7.820;2023-05-14T09:41:16;99760.97;;;25.11
77331;BMP280;66405;48.328;7.820;2023-05-14T09:44:18;99754.75;;;25.11
77331;BMP280;66405;48.328;7.820;2023-05-14T09:47:18;99750.50;;;25.10
77331;BMP280;66405;48.328;7.820;2023-05-14T09:50:20;99745.13;;;25.12
77331;BMP280;66405;48.328;7.820;2023-05-14T09:53:22;99753.78;;;25.16
77331;BMP280;66405;48.328;7.820;2023-05-14T09:56:23;99746.97;;;25.17
77331;BMP280;66405;48.328;7.820;2023-05-14T09:59:23;99740.13;;;25.18
77331;BMP280;66405;48.328;7.820;2023-05-14T10:02:27;99744.00;;;25.30
77331;BMP280;66405;48.328;7.820;2023-05-14T10:05:29;99747.66;;;25.33
77331;BMP280;66405;48.328;7.820;2023-05-14T10:08:33;99736.81;;;25.27
77331;BMP280;66405;48.328;7.820;2023-05-14T10:11:37;99734.16;;;24.81
77331;BMP280;66405;48.328;7.820;2023-05-14T10:14:39;99735.41;;;24.72
77331;BMP280;66405;48.328;7.820;2023-05-14T10:17:43;99738.00;;;24.70
77331;BMP280;66405;48.328;7.820;2023-05-14T10:21:02;99729.56;;;24.68
77331;BMP280;66405;48.328;7.820;2023-05-14T10:24:06;99731.19;;;24.48
77331;BMP280;66405;48.328;7.820;2023-05-14T10:27:07;99728.81;;;24.44
77331;BMP280;66405;48.328;7.820;2023-05-14T10:30:10;99728.97;;;24.46
77331;BMP280;66405;48.328;7.820;2023-05-14T10:33:16;99723.63;;;24.79
77331;BMP280;66405;48.328;7.820;2023-05-14T10:36:21;99722.47;;;25.05
77331;BMP280;66405;48.328;7.820;2023-05-14T10:42:45;99715.78;;;25.24
77331;BMP280;66405;48.328;7.820;2023-05-14T10:45:48;99710.75;;;25.46
77331;BMP280;66405;48.328;7.820;2023-05-14T10:48:49;99711.63;;;25.48
77331;BMP280;66405;48.328;7.820;2023-05-14T10:51:51;99708.06;;;25.63
77331;BMP280;66405;48.328;7.820;2023-05-14T10:54:53;99697.19;;;25.57
77331;BMP280;66405;48.328;7.820;2023-05-14T10:57:57;99699.13;;;25.39
77331;BMP280;66405;48.328;7.820;2023-05-14T11:00:58;99696.22;;;25.30
77331;BMP280;66405;48.328;7.820;2023-05-14T11:04:02;99688.63;;;25.38
77331;BMP280;66405;48.328;7.820;2023-05-14T11:07:06;99693.03;;;25.41
77331;BMP280;66405;48.328;7.820;2023-05-14T11:13:09;99684.28;;;25.19
77331;BMP280;66405;48.328;7.820;2023-05-14T11:16:10;99680.38;;;25.30
77331;BMP280;66405;48.328;7.820;2023-05-14T11:19:11;99679.13;;;25.56
77331;BMP280;66405;48.328;7.820;2023-05-14T11:22:12;99680.75;;;25.92
77331;BMP280;66405;48.328;7.820;2023-05-14T11:25:13;99673.19;;;26.18
77331;BMP280;66405;48.328;7.820;2023-05-14T11:28:14;99671.25;;;26.46
77331;BMP280;66405;48.328;7.820;2023-05-14T11:31:15;99669.00;;;26.87
77331;BMP280;66405;48.328;7.820;2023-05-14T11:34:15;99670.69;;;27.00
77331;BMP280;66405;48.328;7.820;2023-05-14T11:37:18;99663.47;;;27.14
77331;BMP280;66405;48.328;7.820;2023-05-14T11:40:21;99661.56;;;27.34
77331;BMP280;66405;48.328;7.820;2023-05-14T11:43:25;99650.25;;;27.49
77331;BMP280;66405;48.328;7.820;2023-05-14T11:46:28;99660.56;;;27.66
77331;BMP280;66405;48.328;7.820;2023-05-14T11:49:30;99660.34;;;27.55
77331;BMP280;66405;48.328;7.820;2023-05-14T11:52:40;99642.63;;;27.40
77331;BMP280;66405;48.328;7.820;2023-05-14T11:55:40;99660.00;;;27.78
77331;BMP280;66405;48.328;7.820;2023-05-14T11:58:46;99648.91;;;27.78
77331;BMP280;66405;48.328;7.820;2023-05-14T12:01:48;99651.78;;;27.33
77331;BMP280;66405;48.328;7.820;2023-05-14T12:04:53;99650.72;;;26.84
77331;BMP280;66405;48.328;7.820;2023-05-14T12:07:53;99652.63;;;26.46
77331;BMP280;66405;48.328;7.820;2023-05-14T12:10:57;99644.66;;;26.08
77331;BMP280;66405;48.328;7.820;2023-05-14T12:13:58;99634.34;;;25.83
77331;BMP280;66405;48.328;7.820;2023-05-14T12:17:00;99638.38;;;25.57
77331;BMP280;66405;48.328;7.820;2023-05-14T12:20:01;99635.19;;;25.35
77331;BMP280;66405;48.328;7.820;2023-05-14T12:23:01;99625.69;;;25.13
77331;BMP280;66405;48.328;7.820;2023-05-14T12:26:04;99625.88;;;25.15
77331;BMP280;66405;48.328;7.820;2023-05-14T12:29:05;99621.03;;;25.82
77331;BMP280;66405;48.328;7.820;2023-05-14T12:32:07;99603.63;;;26.49
77331;BMP280;66405;48.328;7.820;2023-05-14T12:35:08;99601.22;;;26.98
77331;BMP280;66405;48.328;7.820;2023-05-14T12:38:09;99596.81;;;27.59
77331;BMP280;66405;48.328;7.820;2023-05-14T12:41:09;99588.59;;;28.17
77331;BMP280;66405;48.328;7.820;2023-05-14T12:44:10;99583.88;;;28.59
77331;BMP280;66405;48.328;7.820;2023-05-14T12:47:10;99590.00;;;29.28
77331;BMP280;66405;48.328;7.820;2023-05-14T12:50:11;99589.47;;;29.41
77331;BMP280;66405;48.328;7.820;2023-05-14T12:53:13;99581.13;;;29.41
77331;BMP280;66405;48.328;7.820;2023-05-14T12:56:17;99582.09;;;29.55
77331;BMP280;66405;48.328;7.820;2023-05-14T12:59:20;99579.03;;;29.73
77331;BMP280;66405;48.328;7.820;2023-05-14T13:02:20;99578.16;;;30.13
77331;BMP280;66405;48.328;7.820;2023-05-14T13:05:22;99579.03;;;30.73
77331;BMP280;66405;48.328;7.820;2023-05-14T13:08:22;99581.72;;;31.30
77331;BMP280;66405;48.328;7.820;2023-05-14T13:11:27;99581.84;;;31.08
77331;BMP280;66405;48.328;7.820;2023-05-14T13:14:29;99587.88;;;30.69
77331;BMP280;66405;48.328;7.820;2023-05-14T13:17:30;99578.69;;;30.33
77331;BMP280;66405;48.328;7.820;2023-05-14T13:20:30;99573.81;;;30.55
77331;BMP280;66405;48.328;7.820;2023-05-14T13:23:31;99564.00;;;30.78
77331;BMP280;66405;48.328;7.820;2023-05-14T13:26:31;99567.50;;;31.26
77331;BMP280;66405;48.328;7.820;2023-05-14T13:29:32;99561.34;;;31.65
77331;BMP280;66405;48.328;7.820;2023-05-14T13:32:32;99562.66;;;31.38
77331;BMP280;66405;48.328;7.820;2023-05-14T13:35:33;99569.59;;;31.02
77331;BMP280;66405;48.328;7.820;2023-05-14T13:38:34;99571.91;;;30.70
77331;BMP280;66405;48.328;7.820;2023-05-14T13:41:34;99557.81;;;30.79
77331;BMP280;66405;48.328;7.820;2023-05-14T13:44:36;99561.19;;;31.37
77331;BMP280;66405;48.328;7.820;2023-05-14T13:47:37;99547.63;;;32.20
77331;BMP280;66405;48.328;7.820;2023-05-14T13:50:37;99541.69;;;32.53
77331;BMP280;66405;48.328;7.820;2023-05-14T13:53:39;99543.13;;;32.01
77331;BMP280;66405;48.328;7.820;2023-05-14T13:56:39;99540.59;;;31.18
77331;BMP280;66405;48.328;7.820;2023-05-14T13:59:40;99539.41;;;31.47
77331;BMP280;66405;48.328;7.820;2023-05-14T14:02:41;99527.88;;;31.90
77331;BMP280;66405;48.328;7.820;2023-05-14T14:05:41;99530.91;;;31.57
77331;BMP280;66405;48.328;7.820;2023-05-14T14:08:42;99529.78;;;30.77
77331;BMP280;66405;48.328;7.820;2023-05-14T14:11:42;99527.53;;;30.17
77331;BMP280;66405;48.328;7.820;2023-05-14T14:14:43;99528.00;;;29.58
77331;BMP280;66405;48.328;7.820;2023-05-14T14:17:48;99519.19;;;29.09
77331;BMP280;66405;48.328;7.820;2023-05-14T14:20:49;99519.72;;;28.86
77331;BMP280;66405;48.328;7.820;2023-05-14T14:23:49;99517.16;;;29.10
77331;BMP280;66405;48.328;7.820;2023-05-14T14:26:50;99520.78;;;29.43
77331;BMP280;66405;48.328;7.820;2023-05-14T14:29:50;99514.91;;;29.18
77331;BMP280;66405;48.328;7.820;2023-05-14T14:32:51;99513.53;;;28.66
77331;BMP280;66405;48.328;7.820;2023-05-14T14:35:51;99516.50;;;28.29
77331;BMP280;66405;48.328;7.820;2023-05-14T14:38:52;99521.34;;;27.99
77331;BMP280;66405;48.328;7.820;2023-05-14T14:41:52;99515.63;;;27.78
77331;BMP280;66405;48.328;7.820;2023-05-14T14:44:53;99512.50;;;27.54
77331;BMP280;66405;48.328;7.820;2023-05-14T14:51:24;99528.66;;;27.28
77331;BMP280;66405;48.328;7.820;2023-05-14T14:54:25;99514.63;;;27.26
77331;BMP280;66405;48.328;7.820;2023-05-14T14:57:25;99520.19;;;28.12
77331;BMP280;66405;48.328;7.820;2023-05-14T15:00:26;99514.94;;;29.08
77331;BMP280;66405;48.328;7.820;2023-05-14T15:03:26;99512.84;;;28.87
77331;BMP280;66405;48.328;7.820;2023-05-14T15:06:27;99510.66;;;28.44
77331;BMP280;66405;48.328;7.820;2023-05-14T15:09:28;99514.06;;;28.04
77331;BMP280;66405;48.328;7.820;2023-05-14T15:12:28;99513.69;;;27.61
77331;BMP280;66405;48.328;7.820;2023-05-14T15:15:29;99512.19;;;27.30
77331;BMP280;66405;48.328;7.820;2023-05-14T15:18:30;99503.91;;;27.03
77331;BMP280;66405;48.328;7.820;2023-05-14T15:21:31;99507.88;;;26.83
77331;BMP280;66405;48.328;7.820;2023-05-14T15:24:31;99505.25;;;26.75
77331;BMP280;66405;48.328;7.820;2023-05-14T15:27:34;99505.69;;;27.18
77331;BMP280;66405;48.328;7.820;2023-05-14T15:30:34;99511.66;;;29.64
77331;BMP280;66405;48.328;7.820;2023-05-14T15:33:35;99513.13;;;29.66
77331;BMP280;66405;48.328;7.820;2023-05-14T15:36:35;99512.50;;;29.02
77331;BMP280;66405;48.328;7.820;2023-05-14T15:39:35;99508.59;;;29.17
77331;BMP280;66405;48.328;7.820;2023-05-14T15:42:38;99513.13;;;32.69
77331;BMP280;66405;48.328;7.820;2023-05-14T15:45:38;99516.88;;;34.54
77331;BMP280;66405;48.328;7.820;2023-05-14T15:48:39;99518.25;;;35.38
77331;BMP280;66405;48.328;7.820;2023-05-14T15:51:39;99513.47;;;35.61
77331;BMP280;66405;48.328;7.820;2023-05-14T15:54:40;99517.56;;;34.70
77331;BMP280;66405;48.328;7.820;2023-05-14T15:57:40;99512.97;;;34.61
77331;BMP280;66405;48.328;7.820;2023-05-14T16:00:43;99503.34;;;37.16
77331;BMP280;66405;48.328;7.820;2023-05-14T16:03:43;99495.94;;;39.86
77331;BMP280;66405;48.328;7.820;2023-05-14T16:06:44;99501.53;;;41.79
77331;BMP280;66405;48.328;7.820;2023-05-14T16:09:45;99489.63;;;42.90
77331;BMP280;66405;48.328;7.820;2023-05-14T16:12:45;99497.63;;;43.41
77331;BMP280;66405;48.328;7.820;2023-05-14T16:15:47;99505.84;;;41.21
77331;BMP280;66405;48.328;7.820;2023-05-14T16:18:47;99497.75;;;41.56
77331;BMP280;66405;48.328;7.820;2023-05-14T16:21:48;99494.63;;;42.96
77331;BMP280;66405;48.328;7.820;2023-05-14T16:24:51;99508.56;;;41.13
77331;BMP280;66405;48.328;7.820;2023-05-14T16:27:52;99507.78;;;41.63
77331;BMP280;66405;48.328;7.820;2023-05-14T16:30:54;99510.59;;;41.61
77331;BMP280;66405;48.328;7.820;2023-05-14T16:33:54;99501.84;;;42.09
77331;BMP280;66405;48.328;7.820;2023-05-14T16:36:55;99504.69;;;40.87
77331;BMP280;66405;48.328;7.820;2023-05-14T16:39:55;99503.69;;;39.15
77331;BMP280;66405;48.328;7.820;2023-05-14T16:42:56;99514.81;;;36.78
77331;BMP280;66405;48.328;7.820;2023-05-14T16:45:57;99512.31;;;34.78
77331;BMP280;66405;48.328;7.820;2023-05-14T16:48:57;99510.38;;;34.49
77331;BMP280;66405;48.328;7.820;2023-05-14T16:51:58;99515.03;;;35.64
77331;BMP280;66405;48.328;7.820;2023-05-14T16:54:58;99501.09;;;37.58
77331;BMP280;66405;48.328;7.820;2023-05-14T16:57:59;99501.31;;;37.42
77331;BMP280;66405;48.328;7.820;2023-05-14T17:01:01;99513.19;;;35.35
77331;BMP280;66405;48.328;7.820;2023-05-14T17:04:02;99512.09;;;33.93
77331;BMP280;66405;48.328;7.820;2023-05-14T17:07:03;99511.41;;;35.26
77331;BMP280;66405;48.328;7.820;2023-05-14T17:10:05;99506.38;;;35.78
77331;BMP280;66405;48.328;7.820;2023-05-14T17:13:06;99517.25;;;35.32
77331;BMP280;66405;48.328;7.820;2023-05-14T17:16:06;99517.00;;;34.40
77331;BMP280;66405;48.328;7.820;2023-05-14T17:19:07;99507.72;;;33.44
77331;BMP280;66405;48.328;7.820;2023-05-14T17:22:08;99504.72;;;32.96
77331;BMP280;66405;48.328;7.820;2023-05-14T17:25:08;99506.09;;;32.68
77331;BMP280;66405;48.328;7.820;2023-05-14T17:28:09;99506.28;;;32.72
77331;BMP280;66405;48.328;7.820;2023-05-14T17:31:09;99513.13;;;32.55
77331;BMP280;66405;48.328;7.820;2023-05-14T17:34:10;99510.72;;;31.33
77331;BMP280;66405;48.328;7.820;2023-05-14T17:37:10;99514.16;;;30.15
77331;BMP280;66405;48.328;7.820;2023-05-14T17:40:11;99512.56;;;29.14